sensor_id;sensor_type;location;lat;lon;timestamp;temperature;humidity
75442;DHT22;64019;48.312;14.226;2024-03-02T00:00:15;7.50;99.90
75442;DHT22;64019;48.312;14.226;2024-03-02T00:02:45;7.50;99.90
75442;DHT22;64019;48.312;14.226;2024-03-02T00:05:15;7.50;99.90
75442;DHT22;64019;48.312;14.226;2024-03-02T00:07:51;7.40;99.90
75442;DHT22;64019;48.312;14.226;2024-03-02T00:10:26;7.40;99.90
75442;DHT22;64019;48.312;14.226;2024-03-02T00:12:55;7.40;99.90
75442;DHT22;64019;48.312;14.226;2024-03-02T00:17:56;7.40;99.90
75442;DHT22;64019;48.312;14.226;2024-03-02T00:20:23;7.30;99.90
75442;DHT22;64019;48.312;14.226;2024-03-02T00:23:10;7.30;99.90
75442;DHT22;64019;48.312;14.226;2024-03-02T00:25:44;7.20;99.90
75442;DHT22;64019;48.312;14.226;2024-03-02T00:28:31;7.10;99.90
75442;DHT22;64019;48.312;14.226;2024-03-02T00:31:06;7.10;99.90
75442;DHT22;64019;48.312;14.226;2024-03-02T00:33:46;7.10;99.90
75442;DHT22;64019;48.312;14.226;2024-03-02T00:36:17;7.00;99.90
75442;DHT22;64019;48.312;14.226;2024-03-02T00:38:49;7.00;99.90
75442;DHT22;64019;48.312;14.226;2024-03-02T00:41:35;6.90;99.90
75442;DHT22;64019;48.312;14.226;2024-03-02T00:46:33;6.80;99.90
75442;DHT22;64019;48.312;14.226;2024-03-02T00:49:25;6.70;99.90
75442;DHT22;64019;48.312;14.226;2024-03-02T00:51:53;6.60;99.90
75442;DHT22;64019;48.312;14.226;2024-03-02T00:54:23;6.50;99.90
75442;DHT22;64019;48.312;14.226;2024-03-02T00:56:51;6.50;99.90
75442;DHT22;64019;48.312;14.226;2024-03-02T00:59:17;6.50;99.90
75442;DHT22;64019;48.312;14.226;2024-03-02T01:01:43;6.30;99.90
75442;DHT22;64019;48.312;14.226;2024-03-02T01:04:09;6.10;99.90
75442;DHT22;64019;48.312;14.226;2024-03-02T01:06:35;6.00;99.90
75442;DHT22;64019;48.312;14.226;2024-03-02T01:09:01;5.90;99.90
75442;DHT22;64019;48.312;14.226;2024-03-02T01:11:28;5.90;99.90
75442;DHT22;64019;48.312;14.226;2024-03-02T01:13:54;5.90;99.90
75442;DHT22;64019;48.312;14.226;2024-03-02T01:16:19;5.90;99.90
75442;DHT22;64019;48.312;14.226;2024-03-02T01:18:45;5.90;99.90
75442;DHT22;64019;48.312;14.226;2024-03-02T01:21:11;5.90;99.90
75442;DHT22;64019;48.312;14.226;2024-03-02T01:23:37;5.90;99.90
75442;DHT22;64019;48.312;14.226;2024-03-02T01:26:03;6.00;99.90
75442;DHT22;64019;48.312;14.226;2024-03-02T01:28:29;6.10;99.90
75442;DHT22;64019;48.312;14.226;2024-03-02T01:30:54;6.10;99.90
75442;DHT22;64019;48.312;14.226;2024-03-02T01:33:20;6.10;99.90
75442;DHT22;64019;48.312;14.226;2024-03-02T01:35:47;6.10;99.90
75442;DHT22;64019;48.312;14.226;2024-03-02T01:38:13;6.00;99.90
75442;DHT22;64019;48.312;14.226;2024-03-02T01:40:39;6.00;99.90
75442;DHT22;64019;48.312;14.226;2024-03-02T01:43:05;6.00;99.90
75442;DHT22;64019;48.312;14.226;2024-03-02T01:45:31;6.10;99.90
75442;DHT22;64019;48.312;14.226;2024-03-02T01:47:58;6.10;99.90
75442;DHT22;64019;48.312;14.226;2024-03-02T01:50:32;6.10;99.90
75442;DHT22;64019;48.312;14.226;2024-03-02T01:52:58;6.10;99.90
75442;DHT22;64019;48.312;14.226;2024-03-02T01:55:24;6.10;99.90
75442;DHT22;64019;48.312;14.226;2024-03-02T01:57:50;6.10;99.90
75442;DHT22;64019;48.312;14.226;2024-03-02T02:00:22;6.10;99.90
75442;DHT22;64019;48.312;14.226;2024-03-02T02:02:50;6.10;99.90
75442;DHT22;64019;48.312;14.226;2024-03-02T02:05:16;6.10;99.90
75442;DHT22;64019;48.312;14.226;2024-03-02T02:07:42;6.10;99.90
75442;DHT22;64019;48.312;14.226;2024-03-02T02:10:09;6.10;99.90
75442;DHT22;64019;48.312;14.226;2024-03-02T02:12:36;6.10;99.90
75442;DHT22;64019;48.312;14.226;2024-03-02T02:15:02;6.10;99.90
75442;DHT22;64019;48.312;14.226;2024-03-02T02:17:28;6.10;99.90
75442;DHT22;64019;48.312;14.226;2024-03-02T02:19:54;6.10;99.90
75442;DHT22;64019;48.312;14.226;2024-03-02T02:22:19;6.10;99.90
75442;DHT22;64019;48.312;14.226;2024-03-02T02:24:45;6.10;99.90
75442;DHT22;64019;48.312;14.226;2024-03-02T02:27:11;6.10;99.90
75442;DHT22;64019;48.312;14.226;2024-03-02T02:29:39;6.10;99.90
75442;DHT22;64019;48.312;14.226;2024-03-02T02:32:05;6.20;99.90
75442;DHT22;64019;48.312;14.226;2024-03-02T02:34:31;6.20;99.90
75442;DHT22;64019;48.312;14.226;2024-03-02T02:36:57;6.20;99.90
75442;DHT22;64019;48.312;14.226;2024-03-02T02:39:23;6.20;99.90
75442;DHT22;64019;48.312;14.226;2024-03-02T02:41:49;6.30;99.90
75442;DHT22;64019;48.312;14.226;2024-03-02T02:44:14;6.30;99.90
75442;DHT22;64019;48.312;14.226;2024-03-02T02:46:40;6.30;99.90
75442;DHT22;64019;48.312;14.226;2024-03-02T02:49:06;6.30;99.90
75442;DHT22;64019;48.312;14.226;2024-03-02T02:51:32;6.30;99.90
75442;DHT22;64019;48.312;14.226;2024-03-02T02:53:58;6.40;99.90
75442;DHT22;64019;48.312;14.226;2024-03-02T02:56:24;6.40;99.90
75442;DHT22;64019;48.312;14.226;2024-03-02T02:58:49;6.40;99.90
75442;DHT22;64019;48.312;14.226;2024-03-02T03:01:16;6.40;99.90
75442;DHT22;64019;48.312;14.226;2024-03-02T03:03:45;6.50;99.90
75442;DHT22;64019;48.312;14.226;2024-03-02T03:06:11;6.50;99.90
75442;DHT22;64019;48.312;14.226;2024-03-02T03:08:38;6.40;99.90
75442;DHT22;64019;48.312;14.226;2024-03-02T03:11:04;6.40;99.90
75442;DHT22;64019;48.312;14.226;2024-03-02T03:13:31;6.40;99.90
75442;DHT22;64019;48.312;14.226;2024-03-02T03:15:57;6.40;99.90
75442;DHT22;64019;48.312;14.226;2024-03-02T03:18:23;6.40;99.90
75442;DHT22;64019;48.312;14.226;2024-03-02T03:20:49;6.50;99.90
75442;DHT22;64019;48.312;14.226;2024-03-02T03:23:15;6.50;99.90
75442;DHT22;64019;48.312;14.226;2024-03-02T03:25:43;6.60;99.90
75442;DHT22;64019;48.312;14.226;2024-03-02T03:28:09;6.60;99.90
75442;DHT22;64019;48.312;14.226;2024-03-02T03:30:38;6.70;99.90
75442;DHT22;64019;48.312;14.226;2024-03-02T03:33:04;6.70;99.90
75442;DHT22;64019;48.312;14.226;2024-03-02T03:35:33;6.70;99.90
75442;DHT22;64019;48.312;14.226;2024-03-02T03:38:00;6.70;99.90
75442;DHT22;64019;48.312;14.226;2024-03-02T03:40:26;6.70;99.90
75442;DHT22;64019;48.312;14.226;2024-03-02T03:42:51;6.70;99.90
75442;DHT22;64019;48.312;14.226;2024-03-02T03:45:17;6.70;99.90
75442;DHT22;64019;48.312;14.226;2024-03-02T03:47:43;6.70;99.90
75442;DHT22;64019;48.312;14.226;2024-03-02T03:50:09;6.70;99.90
75442;DHT22;64019;48.312;14.226;2024-03-02T03:52:35;6.70;99.90
75442;DHT22;64019;48.312;14.226;2024-03-02T03:55:01;6.70;99.90
75442;DHT22;64019;48.312;14.226;2024-03-02T03:57:27;6.80;99.90
75442;DHT22;64019;48.312;14.226;2024-03-02T03:59:53;6.80;99.90
75442;DHT22;64019;48.312;14.226;2024-03-02T04:02:19;6.80;99.90
75442;DHT22;64019;48.312;14.226;2024-03-02T04:04:44;6.70;99.90
75442;DHT22;64019;48.312;14.226;2024-03-02T04:07:10;6.70;99.90
75442;DHT22;64019;48.312;14.226;2024-03-02T04:09:36;6.70;99.90
75442;DHT22;64019;48.312;14.226;2024-03-02T04:12:02;6.70;99.90
75442;DHT22;64019;48.312;14.226;2024-03-02T04:14:27;6.70;99.90
75442;DHT22;64019;48.312;14.226;2024-03-02T04:16:53;6.70;99.90
75442;DHT22;64019;48.312;14.226;2024-03-02T04:19:19;6.70;99.90
75442;DHT22;64019;48.312;14.226;2024-03-02T04:21:44;6.60;99.90
75442;DHT22;64019;48.312;14.226;2024-03-02T04:24:10;6.70;99.90
75442;DHT22;64019;48.312;14.226;2024-03-02T04:26:36;6.70;99.90
75442;DHT22;64019;48.312;14.226;2024-03-02T04:29:01;6.70;99.90
75442;DHT22;64019;48.312;14.226;2024-03-02T04:31:27;6.70;99.90
75442;DHT22;64019;48.312;14.226;2024-03-02T04:33:53;6.70;99.90
75442;DHT22;64019;48.312;14.226;2024-03-02T04:36:19;6.70;99.90
75442;DHT22;64019;48.312;14.226;2024-03-02T04:38:45;6.70;99.90
75442;DHT22;64019;48.312;14.226;2024-03-02T04:41:11;6.70;99.90
75442;DHT22;64019;48.312;14.226;2024-03-02T04:43:36;6.70;99.90
75442;DHT22;64019;48.312;14.226;2024-03-02T04:46:02;6.70;99.90
75442;DHT22;64019;48.312;14.226;2024-03-02T04:48:28;6.70;99.90
75442;DHT22;64019;48.312;14.226;2024-03-02T04:50:53;6.60;99.90
75442;DHT22;64019;48.312;14.226;2024-03-02T04:53:19;6.60;99.90
75442;DHT22;64019;48.312;14.226;2024-03-02T04:55:45;6.70;99.90
75442;DHT22;64019;48.312;14.226;2024-03-02T04:58:30;6.60;99.90
75442;DHT22;64019;48.312;14.226;2024-03-02T05:00:55;6.60;99.90
75442;DHT22;64019;48.312;14.226;2024-03-02T05:03:22;6.50;99.90
75442;DHT22;64019;48.312;14.226;2024-03-02T05:05:47;6.50;99.90
75442;DHT22;64019;48.312;14.226;2024-03-02T05:08:13;6.50;99.90
75442;DHT22;64019;48.312;14.226;2024-03-02T05:10:39;6.40;99.90
75442;DHT22;64019;48.312;14.226;2024-03-02T05:13:04;6.10;99.90
75442;DHT22;64019;48.312;14.226;2024-03-02T05:15:30;6.00;99.90
75442;DHT22;64019;48.312;14.226;2024-03-02T05:17:56;6.00;99.90
75442;DHT22;64019;48.312;14.226;2024-03-02T05:20:22;6.00;99.90
75442;DHT22;64019;48.312;14.226;2024-03-02T05:22:48;6.00;99.90
75442;DHT22;64019;48.312;14.226;2024-03-02T05:25:15;5.90;99.90
75442;DHT22;64019;48.312;14.226;2024-03-02T05:27:40;5.80;99.90
75442;DHT22;64019;48.312;14.226;2024-03-02T05:30:07;5.80;99.90
75442;DHT22;64019;48.312;14.226;2024-03-02T05:32:33;5.70;99.90
75442;DHT22;64019;48.312;14.226;2024-03-02T05:34:59;5.70;99.90
75442;DHT22;64019;48.312;14.226;2024-03-02T05:37:25;5.70;99.90
75442;DHT22;64019;48.312;14.226;2024-03-02T05:39:50;5.70;99.90
75442;DHT22;64019;48.312;14.226;2024-03-02T05:42:16;5.80;99.90
75442;DHT22;64019;48.312;14.226;2024-03-02T05:44:44;5.80;99.90
75442;DHT22;64019;48.312;14.226;2024-03-02T05:47:10;5.80;99.90
75442;DHT22;64019;48.312;14.226;2024-03-02T05:50:13;5.80;99.90
75442;DHT22;64019;48.312;14.226;2024-03-02T05:56:57;5.90;99.90
75442;DHT22;64019;48.312;14.226;2024-03-02T05:59:54;6.00;99.90
75442;DHT22;64019;48.312;14.226;2024-03-02T06:02:28;6.10;99.90
75442;DHT22;64019;48.312;14.226;2024-03-02T06:05:05;6.10;99.90
75442;DHT22;64019;48.312;14.226;2024-03-02T06:07:52;6.10;99.90
75442;DHT22;64019;48.312;14.226;2024-03-02T06:10:17;6.10;99.90
75442;DHT22;64019;48.312;14.226;2024-03-02T06:12:43;6.20;99.90
75442;DHT22;64019;48.312;14.226;2024-03-02T06:15:09;6.20;99.90
75442;DHT22;64019;48.312;14.226;2024-03-02T06:17:56;6.30;99.90
75442;DHT22;64019;48.312;14.226;2024-03-02T06:20:37;6.30;99.90
75442;DHT22;64019;48.312;14.226;2024-03-02T06:23:04;6.40;99.90
75442;DHT22;64019;48.312;14.226;2024-03-02T06:25:36;6.40;99.90
75442;DHT22;64019;48.312;14.226;2024-03-02T06:28:02;6.40;99.90
75442;DHT22;64019;48.312;14.226;2024-03-02T06:30:28;6.50;99.90
75442;DHT22;64019;48.312;14.226;2024-03-02T06:32:54;6.50;99.90
75442;DHT22;64019;48.312;14.226;2024-03-02T06:35:24;6.50;99.90
75442;DHT22;64019;48.312;14.226;2024-03-02T06:37:52;6.50;99.90
75442;DHT22;64019;48.312;14.226;2024-03-02T06:40:17;6.60;99.90
75442;DHT22;64019;48.312;14.226;2024-03-02T06:42:44;6.60;99.90
75442;DHT22;64019;48.312;14.226;2024-03-02T06:45:10;6.60;99.90
75442;DHT22;64019;48.312;14.226;2024-03-02T06:47:35;6.60;99.90
75442;DHT22;64019;48.312;14.226;2024-03-02T06:50:01;6.60;99.90
75442;DHT22;64019;48.312;14.226;2024-03-02T06:52:27;6.70;99.90
75442;DHT22;64019;48.312;14.226;2024-03-02T06:54:52;6.70;99.90
75442;DHT22;64019;48.312;14.226;2024-03-02T06:57:18;6.80;99.90
75442;DHT22;64019;48.312;14.226;2024-03-02T06:59:46;6.80;99.90
75442;DHT22;64019;48.312;14.226;2024-03-02T07:02:12;6.80;99.90
75442;DHT22;64019;48.312;14.226;2024-03-02T07:04:53;6.80;99.90
75442;DHT22;64019;48.312;14.226;2024-03-02T07:07:26;6.90;99.90
75442;DHT22;64019;48.312;14.226;2024-03-02T07:09:55;6.90;99.90
75442;DHT22;64019;48.312;14.226;2024-03-02T07:12:24;6.90;99.90
75442;DHT22;64019;48.312;14.226;2024-03-02T07:14:50;6.90;99.90
75442;DHT22;64019;48.312;14.226;2024-03-02T07:17:36;6.90;99.90
75442;DHT22;64019;48.312;14.226;2024-03-02T07:20:02;7.00;99.90
75442;DHT22;64019;48.312;14.226;2024-03-02T07:22:29;7.10;99.90
75442;DHT22;64019;48.312;14.226;2024-03-02T07:24:55;7.10;99.90
75442;DHT22;64019;48.312;14.226;2024-03-02T07:27:21;7.10;99.90
75442;DHT22;64019;48.312;14.226;2024-03-02T07:29:47;7.20;99.90
75442;DHT22;64019;48.312;14.226;2024-03-02T07:32:13;7.20;99.90
75442;DHT22;64019;48.312;14.226;2024-03-02T07:34:38;7.20;99.90
75442;DHT22;64019;48.312;14.226;2024-03-02T07:37:04;7.20;99.90
75442;DHT22;64019;48.312;14.226;2024-03-02T07:39:31;7.30;99.90
75442;DHT22;64019;48.312;14.226;2024-03-02T07:41:57;7.30;99.90
75442;DHT22;64019;48.312;14.226;2024-03-02T07:44:24;7.40;99.90
75442;DHT22;64019;48.312;14.226;2024-03-02T07:46:49;7.50;99.90
75442;DHT22;64019;48.312;14.226;2024-03-02T07:49:16;7.50;99.90
75442;DHT22;64019;48.312;14.226;2024-03-02T07:51:42;7.60;99.90
75442;DHT22;64019;48.312;14.226;2024-03-02T07:54:08;7.70;99.90
75442;DHT22;64019;48.312;14.226;2024-03-02T07:56:34;7.80;99.90
75442;DHT22;64019;48.312;14.226;2024-03-02T07:59:00;7.80;99.90
75442;DHT22;64019;48.312;14.226;2024-03-02T08:01:35;7.80;99.90
75442;DHT22;64019;48.312;14.226;2024-03-02T08:04:02;7.80;99.90
75442;DHT22;64019;48.312;14.226;2024-03-02T08:06:29;7.90;99.90
75442;DHT22;64019;48.312;14.226;2024-03-02T08:08:59;7.90;99.90
75442;DHT22;64019;48.312;14.226;2024-03-02T08:11:26;7.90;99.90
75442;DHT22;64019;48.312;14.226;2024-03-02T08:13:56;7.90;99.90
75442;DHT22;64019;48.312;14.226;2024-03-02T08:16:24;8.00;99.90
75442;DHT22;64019;48.312;14.226;2024-03-02T08:18:51;8.00;99.90
75442;DHT22;64019;48.312;14.226;2024-03-02T08:21:17;8.00;99.90
75442;DHT22;64019;48.312;14.226;2024-03-02T08:23:43;8.10;99.90
75442;DHT22;64019;48.312;14.226;2024-03-02T08:26:11;8.20;99.90
75442;DHT22;64019;48.312;14.226;2024-03-02T08:28:37;8.20;99.90
75442;DHT22;64019;48.312;14.226;2024-03-02T08:31:03;8.20;99.90
75442;DHT22;64019;48.312;14.226;2024-03-02T08:33:29;8.20;99.90
75442;DHT22;64019;48.312;14.226;2024-03-02T08:35:56;8.20;99.90
75442;DHT22;64019;48.312;14.226;2024-03-02T08:38:22;8.30;99.90
75442;DHT22;64019;48.312;14.226;2024-03-02T08:40:49;8.20;99.90
75442;DHT22;64019;48.312;14.226;2024-03-02T08:43:15;8.20;99.90
75442;DHT22;64019;48.312;14.226;2024-03-02T08:45:41;8.30;99.90
75442;DHT22;64019;48.312;14.226;2024-03-02T08:48:10;8.30;99.90
75442;DHT22;64019;48.312;14.226;2024-03-02T08:50:36;8.30;99.90
75442;DHT22;64019;48.312;14.226;2024-03-02T08:53:03;8.40;99.90
75442;DHT22;64019;48.312;14.226;2024-03-02T08:55:29;8.40;99.90
75442;DHT22;64019;48.312;14.226;2024-03-02T08:57:55;8.50;99.90
75442;DHT22;64019;48.312;14.226;2024-03-02T09:00:21;8.70;99.90
75442;DHT22;64019;48.312;14.226;2024-03-02T09:02:47;8.70;99.90
75442;DHT22;64019;48.312;14.226;2024-03-02T09:05:13;8.70;99.90
75442;DHT22;64019;48.312;14.226;2024-03-02T09:07:39;8.80;99.90
75442;DHT22;64019;48.312;14.226;2024-03-02T09:10:05;8.90;99.90
75442;DHT22;64019;48.312;14.226;2024-03-02T09:12:32;8.90;99.90
75442;DHT22;64019;48.312;14.226;2024-03-02T09:14:58;8.90;99.90
75442;DHT22;64019;48.312;14.226;2024-03-02T09:17:24;8.80;99.90
75442;DHT22;64019;48.312;14.226;2024-03-02T09:19:50;8.80;99.90
75442;DHT22;64019;48.312;14.226;2024-03-02T09:22:18;8.80;99.90
75442;DHT22;64019;48.312;14.226;2024-03-02T09:24:44;8.80;99.90
75442;DHT22;64019;48.312;14.226;2024-03-02T09:27:10;8.80;99.90
75442;DHT22;64019;48.312;14.226;2024-03-02T09:29:36;8.90;99.90
75442;DHT22;64019;48.312;14.226;2024-03-02T09:32:02;8.90;99.90
75442;DHT22;64019;48.312;14.226;2024-03-02T09:34:27;9.00;99.90
75442;DHT22;64019;48.312;14.226;2024-03-02T09:36:53;9.10;99.90
75442;DHT22;64019;48.312;14.226;2024-03-02T09:39:19;9.30;99.90
75442;DHT22;64019;48.312;14.226;2024-03-02T09:41:45;9.40;99.90
75442;DHT22;64019;48.312;14.226;2024-03-02T09:44:11;9.40;99.90
75442;DHT22;64019;48.312;14.226;2024-03-02T09:46:36;9.40;99.90
75442;DHT22;64019;48.312;14.226;2024-03-02T09:49:03;9.40;99.90
75442;DHT22;64019;48.312;14.226;2024-03-02T09:51:28;9.50;99.90
75442;DHT22;64019;48.312;14.226;2024-03-02T09:53:55;9.50;99.90
75442;DHT22;64019;48.312;14.226;2024-03-02T09:56:24;9.50;99.90
75442;DHT22;64019;48.312;14.226;2024-03-02T09:58:49;9.50;99.90
75442;DHT22;64019;48.312;14.226;2024-03-02T10:01:15;9.60;99.90
75442;DHT22;64019;48.312;14.226;2024-03-02T10:03:41;9.60;99.90
75442;DHT22;64019;48.312;14.226;2024-03-02T10:06:23;9.60;99.90
75442;DHT22;64019;48.312;14.226;2024-03-02T10:08:49;9.60;99.90
75442;DHT22;64019;48.312;14.226;2024-03-02T10:11:30;9.70;99.90
75442;DHT22;64019;48.312;14.226;2024-03-02T10:14:09;9.80;99.90
75442;DHT22;64019;48.312;14.226;2024-03-02T10:16:43;9.90;99.90
75442;DHT22;64019;48.312;14.226;2024-03-02T10:19:22;9.90;99.90
75442;DHT22;64019;48.312;14.226;2024-03-02T10:21:55;10.00;99.90
75442;DHT22;64019;48.312;14.226;2024-03-02T10:24:22;9.90;99.90
75442;DHT22;64019;48.312;14.226;2024-03-02T10:26:49;9.80;99.90
75442;DHT22;64019;48.312;14.226;2024-03-02T10:29:15;9.80;99.90
75442;DHT22;64019;48.312;14.226;2024-03-02T10:31:43;9.90;99.90
75442;DHT22;64019;48.312;14.226;2024-03-02T10:34:10;10.00;99.90
75442;DHT22;64019;48.312;14.226;2024-03-02T10:36:36;10.20;99.90
75442;DHT22;64019;48.312;14.226;2024-03-02T10:39:06;10.30;99.90
75442;DHT22;64019;48.312;14.226;2024-03-02T10:41:33;10.30;99.90
75442;DHT22;64019;48.312;14.226;2024-03-02T10:44:05;10.40;99.90
75442;DHT22;64019;48.312;14.226;2024-03-02T10:46:34;10.50;99.90
75442;DHT22;64019;48.312;14.226;2024-03-02T10:49:01;10.60;99.90
75442;DHT22;64019;48.312;14.226;2024-03-02T10:51:28;10.80;99.90
75442;DHT22;64019;48.312;14.226;2024-03-02T10:53:58;10.90;99.90
75442;DHT22;64019;48.312;14.226;2024-03-02T10:56:29;11.10;99.90
75442;DHT22;64019;48.312;14.226;2024-03-02T10:59:03;11.20;99.90
75442;DHT22;64019;48.312;14.226;2024-03-02T11:01:32;11.20;99.90
75442;DHT22;64019;48.312;14.226;2024-03-02T11:03:59;11.10;99.90
75442;DHT22;64019;48.312;14.226;2024-03-02T11:06:28;11.00;99.90
75442;DHT22;64019;48.312;14.226;2024-03-02T11:08:58;11.10;99.90
75442;DHT22;64019;48.312;14.226;2024-03-02T11:11:30;11.10;99.90
75442;DHT22;64019;48.312;14.226;2024-03-02T11:14:01;11.00;99.90
75442;DHT22;64019;48.312;14.226;2024-03-02T11:16:37;11.10;99.90
75442;DHT22;64019;48.312;14.226;2024-03-02T11:19:12;11.10;99.90
75442;DHT22;64019;48.312;14.226;2024-03-02T11:21:38;11.10;99.90
75442;DHT22;64019;48.312;14.226;2024-03-02T11:26:50;11.30;99.90
75442;DHT22;64019;48.312;14.226;2024-03-02T11:32:14;11.20;99.90
75442;DHT22;64019;48.312;14.226;2024-03-02T11:34:42;11.30;99.90
75442;DHT22;64019;48.312;14.226;2024-03-02T11:37:12;11.30;99.90
75442;DHT22;64019;48.312;14.226;2024-03-02T11:39:39;11.30;99.90
75442;DHT22;64019;48.312;14.226;2024-03-02T11:42:08;11.30;99.90
75442;DHT22;64019;48.312;14.226;2024-03-02T11:44:36;11.10;99.90
75442;DHT22;64019;48.312;14.226;2024-03-02T11:47:06;10.90;99.90
75442;DHT22;64019;48.312;14.226;2024-03-02T11:49:41;10.90;99.90
75442;DHT22;64019;48.312;14.226;2024-03-02T11:52:08;10.90;99.90
75442;DHT22;64019;48.312;14.226;2024-03-02T11:54:38;11.00;99.90
75442;DHT22;64019;48.312;14.226;2024-03-02T11:57:12;11.10;99.90
75442;DHT22;64019;48.312;14.226;2024-03-02T11:59:39;11.20;99.90
75442;DHT22;64019;48.312;14.226;2024-03-02T12:02:06;11.30;99.90
75442;DHT22;64019;48.312;14.226;2024-03-02T12:04:32;11.40;99.90
75442;DHT22;64019;48.312;14.226;2024-03-02T12:07:01;11.50;99.90
75442;DHT22;64019;48.312;14.226;2024-03-02T12:09:30;11.50;99.90
75442;DHT22;64019;48.312;14.226;2024-03-02T12:12:06;11.50;99.90
75442;DHT22;64019;48.312;14.226;2024-03-02T12:14:33;11.60;99.90
75442;DHT22;64019;48.312;14.226;2024-03-02T12:16:59;11.60;99.90
75442;DHT22;64019;48.312;14.226;2024-03-02T12:19:26;11.60;99.90
75442;DHT22;64019;48.312;14.226;2024-03-02T12:21:53;11.60;99.90
75442;DHT22;64019;48.312;14.226;2024-03-02T12:24:20;11.80;99.90
75442;DHT22;64019;48.312;14.226;2024-03-02T12:26:47;11.80;99.90
75442;DHT22;64019;48.312;14.226;2024-03-02T12:29:13;11.80;99.90
75442;DHT22;64019;48.312;14.226;2024-03-02T12:31:41;11.80;99.90
75442;DHT22;64019;48.312;14.226;2024-03-02T12:34:08;11.70;99.90
75442;DHT22;64019;48.312;14.226;2024-03-02T12:36:38;11.60;99.90
75442;DHT22;64019;48.312;14.226;2024-03-02T12:39:04;11.50;99.90
75442;DHT22;64019;48.312;14.226;2024-03-02T12:41:30;11.50;99.90
75442;DHT22;64019;48.312;14.226;2024-03-02T12:43:56;11.50;99.90
75442;DHT22;64019;48.312;14.226;2024-03-02T12:46:21;11.50;99.90
75442;DHT22;64019;48.312;14.226;2024-03-02T12:48:47;11.40;99.90
75442;DHT22;64019;48.312;14.226;2024-03-02T12:51:13;11.40;99.90
75442;DHT22;64019;48.312;14.226;2024-03-02T12:53:40;11.40;99.90
75442;DHT22;64019;48.312;14.226;2024-03-02T12:56:05;11.30;99.90
75442;DHT22;64019;48.312;14.226;2024-03-02T12:58:42;11.40;99.90
75442;DHT22;64019;48.312;14.226;2024-03-02T13:01:08;11.30;99.90
75442;DHT22;64019;48.312;14.226;2024-03-02T13:03:40;11.40;99.90
75442;DHT22;64019;48.312;14.226;2024-03-02T13:06:07;11.40;99.90
75442;DHT22;64019;48.312;14.226;2024-03-02T13:08:33;11.40;99.90
75442;DHT22;64019;48.312;14.226;2024-03-02T13:10:59;11.40;99.90
75442;DHT22;64019;48.312;14.226;2024-03-02T13:13:25;11.30;99.90
75442;DHT22;64019;48.312;14.226;2024-03-02T13:15:55;11.30;99.90
75442;DHT22;64019;48.312;14.226;2024-03-02T13:18:22;11.30;99.90
75442;DHT22;64019;48.312;14.226;2024-03-02T13:20:47;11.30;99.90
75442;DHT22;64019;48.312;14.226;2024-03-02T13:23:13;11.30;99.90
75442;DHT22;64019;48.312;14.226;2024-03-02T13:25:39;11.30;99.90
75442;DHT22;64019;48.312;14.226;2024-03-02T13:28:06;11.30;99.90
75442;DHT22;64019;48.312;14.226;2024-03-02T13:30:32;11.30;99.90
75442;DHT22;64019;48.312;14.226;2024-03-02T13:32:58;11.20;99.90
75442;DHT22;64019;48.312;14.226;2024-03-02T13:35:24;11.30;99.90
75442;DHT22;64019;48.312;14.226;2024-03-02T13:37:50;11.30;99.90
75442;DHT22;64019;48.312;14.226;2024-03-02T13:40:16;11.40;99.90
75442;DHT22;64019;48.312;14.226;2024-03-02T13:42:46;11.40;99.90
75442;DHT22;64019;48.312;14.226;2024-03-02T13:45:13;11.40;99.90
75442;DHT22;64019;48.312;14.226;2024-03-02T13:47:38;11.50;99.90
75442;DHT22;64019;48.312;14.226;2024-03-02T13:50:04;11.50;99.90
75442;DHT22;64019;48.312;14.226;2024-03-02T13:52:31;11.60;99.90
75442;DHT22;64019;48.312;14.226;2024-03-02T13:54:57;11.60;99.90
75442;DHT22;64019;48.312;14.226;2024-03-02T13:57:23;11.70;99.90
75442;DHT22;64019;48.312;14.226;2024-03-02T13:59:49;11.70;99.90
75442;DHT22;64019;48.312;14.226;2024-03-02T14:02:15;11.70;99.90
75442;DHT22;64019;48.312;14.226;2024-03-02T14:04:40;11.70;99.90
75442;DHT22;64019;48.312;14.226;2024-03-02T14:07:07;11.70;99.90
75442;DHT22;64019;48.312;14.226;2024-03-02T14:09:33;11.80;99.90
75442;DHT22;64019;48.312;14.226;2024-03-02T14:11:58;11.80;99.90
75442;DHT22;64019;48.312;14.226;2024-03-02T14:14:26;12.00;99.90
75442;DHT22;64019;48.312;14.226;2024-03-02T14:16:52;11.90;99.90
75442;DHT22;64019;48.312;14.226;2024-03-02T14:19:18;11.90;99.90
75442;DHT22;64019;48.312;14.226;2024-03-02T14:21:44;12.00;99.90
75442;DHT22;64019;48.312;14.226;2024-03-02T14:24:10;12.00;99.90
75442;DHT22;64019;48.312;14.226;2024-03-02T14:26:37;12.10;99.90
75442;DHT22;64019;48.312;14.226;2024-03-02T14:29:03;12.10;99.90
75442;DHT22;64019;48.312;14.226;2024-03-02T14:31:29;12.10;99.90
75442;DHT22;64019;48.312;14.226;2024-03-02T14:33:56;12.00;99.90
75442;DHT22;64019;48.312;14.226;2024-03-02T14:36:22;12.00;99.90
75442;DHT22;64019;48.312;14.226;2024-03-02T14:38:48;11.90;99.90
75442;DHT22;64019;48.312;14.226;2024-03-02T14:41:14;11.90;99.90
75442;DHT22;64019;48.312;14.226;2024-03-02T14:43:40;11.90;99.90
75442;DHT22;64019;48.312;14.226;2024-03-02T14:46:06;11.90;99.90
75442;DHT22;64019;48.312;14.226;2024-03-02T14:48:38;11.90;99.90
75442;DHT22;64019;48.312;14.226;2024-03-02T14:51:04;11.90;99.90
75442;DHT22;64019;48.312;14.226;2024-03-02T14:53:30;11.80;99.90
75442;DHT22;64019;48.312;14.226;2024-03-02T14:55:56;11.80;99.90
75442;DHT22;64019;48.312;14.226;2024-03-02T14:58:22;11.90;99.90
75442;DHT22;64019;48.312;14.226;2024-03-02T15:00:47;11.90;99.90
75442;DHT22;64019;48.312;14.226;2024-03-02T15:03:13;11.80;99.90
75442;DHT22;64019;48.312;14.226;2024-03-02T15:05:39;11.80;99.90
75442;DHT22;64019;48.312;14.226;2024-03-02T15:08:06;11.80;99.90
75442;DHT22;64019;48.312;14.226;2024-03-02T15:10:32;11.80;99.90
75442;DHT22;64019;48.312;14.226;2024-03-02T15:12:58;11.70;99.90
75442;DHT22;64019;48.312;14.226;2024-03-02T15:15:24;11.70;99.90
75442;DHT22;64019;48.312;14.226;2024-03-02T15:17:50;11.70;99.90
75442;DHT22;64019;48.312;14.226;2024-03-02T15:20:17;11.70;99.90
75442;DHT22;64019;48.312;14.226;2024-03-02T15:22:43;11.60;99.90
75442;DHT22;64019;48.312;14.226;2024-03-02T15:25:09;11.60;99.90
75442;DHT22;64019;48.312;14.226;2024-03-02T15:27:34;11.70;99.90
75442;DHT22;64019;48.312;14.226;2024-03-02T15:30:00;11.70;99.90
75442;DHT22;64019;48.312;14.226;2024-03-02T15:32:26;11.70;99.90
75442;DHT22;64019;48.312;14.226;2024-03-02T15:34:53;11.70;99.90
75442;DHT22;64019;48.312;14.226;2024-03-02T15:37:18;11.70;99.90
75442;DHT22;64019;48.312;14.226;2024-03-02T15:39:44;11.60;99.90
75442;DHT22;64019;48.312;14.226;2024-03-02T15:42:10;11.60;99.90